sensor_id;sensor_type;location;lat;lon;timestamp;pressure;altitude;pressure_sealevel;temperature;humidity
11710;BME280;5911;51.036;6.972;2022-12-29T00:01:46;99597.41;;;11.28;100.00
11710;BME280;5911;51.036;6.972;2022-12-29T00:04:14;99594.59;;;11.30;100.00
11710;BME280;5911;51.036;6.972;2022-12-29T00:06:42;99580.06;;;11.25;100.00
11710;BME280;5911;51.036;6.972;2022-12-29T00:09:10;99582.69;;;11.25;100.00
11710;BME280;5911;51.036;6.972;2022-12-29T00:11:40;99548.31;;;11.17;100.00
11710;BME280;5911;51.036;6.972;2022-12-29T00:14:08;99553.97;;;11.22;100.00
11710;BME280;5911;51.036;6.972;2022-12-29T00:16:54;99552.31;;;11.21;100.00
11710;BME280;5911;51.036;6.972;2022-12-29T00:19:22;99559.38;;;11.21;100.00
11710;BME280;5911;51.036;6.972;2022-12-29T00:22:08;99560.22;;;11.21;100.00
11710;BME280;5911;51.036;6.972;2022-12-29T00:24:53;99551.31;;;11.22;100.00
11710;BME280;5911;51.036;6.972;2022-12-29T00:27:36;99549.50;;;11.23;100.00
11710;BME280;5911;51.036;6.972;2022-12-29T00:30:27;99545.72;;;11.25;100.00
11710;BME280;5911;51.036;6.972;2022-12-29T00:33:14;99540.47;;;11.25;100.00
11710;BME280;5911;51.036;6.972;2022-12-29T00:36:02;99538.50;;;11.27;100.00
11710;BME280;5911;51.036;6.972;2022-12-29T00:38:35;99533.06;;;11.29;100.00
11710;BME280;5911;51.036;6.972;2022-12-29T00:41:22;99539.81;;;11.32;100.00
11710;BME280;5911;51.036;6.972;2022-12-29T00:44:11;99532.72;;;11.32;100.00
11710;BME280;5911;51.036;6.972;2022-12-29T00:46:41;99530.59;;;11.36;100.00
11710;BME280;5911;51.036;6.972;2022-12-29T00:49:10;99519.03;;;11.28;100.00
11710;BME280;5911;51.036;6.972;2022-12-29T00:51:58;99526.97;;;11.37;100.00
11710;BME280;5911;51.036;6.972;2022-12-29T00:54:28;99525.84;;;11.39;100.00
11710;BME280;5911;51.036;6.972;2022-12-29T00:56:56;99492.19;;;11.15;100.00
11710;BME280;5911;51.036;6.972;2022-12-29T00:59:25;99505.84;;;11.37;100.00
11710;BME280;5911;51.036;6.972;2022-12-29T01:01:56;99500.41;;;11.30;100.00
11710;BME280;5911;51.036;6.972;2022-12-29T01:04:25;99522.59;;;11.45;100.00
11710;BME280;5911;51.036;6.972;2022-12-29T01:06:53;99497.56;;;11.32;100.00
11710;BME280;5911;51.036;6.972;2022-12-29T01:09:21;99483.97;;;11.18;100.00
11710;BME280;5911;51.036;6.972;2022-12-29T01:29:55;99534.53;;;11.06;100.00
11710;BME280;5911;51.036;6.972;2022-12-29T01:32:23;99527.75;;;11.03;100.00
11710;BME280;5911;51.036;6.972;2022-12-29T01:34:51;99521.50;;;11.04;100.00
11710;BME280;5911;51.036;6.972;2022-12-29T01:37:18;99519.53;;;11.06;100.00
11710;BME280;5911;51.036;6.972;2022-12-29T01:39:46;99529.78;;;11.09;100.00
11710;BME280;5911;51.036;6.972;2022-12-29T01:42:16;99524.22;;;11.12;100.00
11710;BME280;5911;51.036;6.972;2022-12-29T01:44:53;99521.56;;;11.12;100.00
11710;BME280;5911;51.036;6.972;2022-12-29T01:47:30;99526.03;;;11.12;100.00
11710;BME280;5911;51.036;6.972;2022-12-29T01:50:03;99516.75;;;11.08;100.00
11710;BME280;5911;51.036;6.972;2022-12-29T01:52:35;99503.78;;;11.14;100.00
11710;BME280;5911;51.036;6.972;2022-12-29T01:55:05;99520.44;;;11.15;100.00
11710;BME280;5911;51.036;6.972;2022-12-29T01:57:36;99506.59;;;11.21;100.00
11710;BME280;5911;51.036;6.972;2022-12-29T02:00:07;99501.84;;;11.24;100.00
11710;BME280;5911;51.036;6.972;2022-12-29T02:02:40;99502.84;;;11.32;100.00
11710;BME280;5911;51.036;6.972;2022-12-29T02:05:13;99497.56;;;11.32;100.00
11710;BME280;5911;51.036;6.972;2022-12-29T02:07:44;99508.19;;;11.40;100.00
11710;BME280;5911;51.036;6.972;2022-12-29T02:10:13;99505.09;;;11.44;100.00
11710;BME280;5911;51.036;6.972;2022-12-29T02:12:41;99502.63;;;11.51;100.00
11710;BME280;5911;51.036;6.972;2022-12-29T02:15:09;99486.47;;;11.54;100.00
11710;BME280;5911;51.036;6.972;2022-12-29T02:18:01;99498.03;;;11.61;100.00
11710;BME280;5911;51.036;6.972;2022-12-29T02:21:02;99496.41;;;11.60;100.00
11710;BME280;5911;51.036;6.972;2022-12-29T02:27:31;99480.56;;;11.60;100.00
11710;BME280;5911;51.036;6.972;2022-12-29T02:30:15;99458.72;;;11.50;100.00
11710;BME280;5911;51.036;6.972;2022-12-29T02:32:54;99481.56;;;11.67;100.00
11710;BME280;5911;51.036;6.972;2022-12-29T02:35:30;99508.13;;;11.66;100.00
11710;BME280;5911;51.036;6.972;2022-12-29T02:38:11;99489.84;;;11.72;100.00
11710;BME280;5911;51.036;6.972;2022-12-29T02:40:45;99488.19;;;11.71;100.00
11710;BME280;5911;51.036;6.972;2022-12-29T02:43:21;99469.34;;;11.66;100.00
11710;BME280;5911;51.036;6.972;2022-12-29T02:45:54;99476.28;;;11.67;100.00
11710;BME280;5911;51.036;6.972;2022-12-29T02:48:29;99468.50;;;11.66;100.00
11710;BME280;5911;51.036;6.972;2022-12-29T02:51:03;99463.53;;;11.62;100.00
11710;BME280;5911;51.036;6.972;2022-12-29T02:53:33;99471.63;;;11.61;100.00
11710;BME280;5911;51.036;6.972;2022-12-29T02:56:19;99468.00;;;11.62;100.00
11710;BME280;5911;51.036;6.972;2022-12-29T02:58:47;99444.84;;;11.48;100.00
11710;BME280;5911;51.036;6.972;2022-12-29T03:01:28;99474.63;;;11.66;100.00
11710;BME280;5911;51.036;6.972;2022-12-29T03:04:18;99469.34;;;11.66;100.00
11710;BME280;5911;51.036;6.972;2022-12-29T03:06:54;99461.88;;;11.61;100.00
11710;BME280;5911;51.036;6.972;2022-12-29T03:09:34;99459.44;;;11.60;100.00
11710;BME280;5911;51.036;6.972;2022-12-29T03:12:14;99448.19;;;11.66;100.00
11710;BME280;5911;51.036;6.972;2022-12-29T03:14:57;99448.50;;;11.63;100.00
11710;BME280;5911;51.036;6.972;2022-12-29T03:17:53;99449.50;;;11.62;100.00
11710;BME280;5911;51.036;6.972;2022-12-29T03:20:28;99443.22;;;11.63;100.00
11710;BME280;5911;51.036;6.972;2022-12-29T03:23:02;99431.84;;;11.62;100.00
11710;BME280;5911;51.036;6.972;2022-12-29T03:25:37;99424.75;;;11.63;100.00
11710;BME280;5911;51.036;6.972;2022-12-29T03:28:12;99416.31;;;11.51;100.00
11710;BME280;5911;51.036;6.972;2022-12-29T03:30:45;99421.63;;;11.59;100.00
11710;BME280;5911;51.036;6.972;2022-12-29T03:33:20;99423.59;;;11.57;100.00
11710;BME280;5911;51.036;6.972;2022-12-29T03:35:53;99419.13;;;11.58;100.00
11710;BME280;5911;51.036;6.972;2022-12-29T03:38:27;99417.16;;;11.60;100.00
11710;BME280;5911;51.036;6.972;2022-12-29T03:40:58;99429.53;;;11.59;100.00
11710;BME280;5911;51.036;6.972;2022-12-29T03:43:29;99435.00;;;11.58;100.00
11710;BME280;5911;51.036;6.972;2022-12-29T03:45:57;99425.41;;;11.57;100.00
11710;BME280;5911;51.036;6.972;2022-12-29T03:48:25;99424.06;;;11.61;100.00
11710;BME280;5911;51.036;6.972;2022-12-29T03:50:56;99413.03;;;11.57;100.00
11710;BME280;5911;51.036;6.972;2022-12-29T03:53:24;99408.56;;;11.58;100.00
11710;BME280;5911;51.036;6.972;2022-12-29T03:55:52;99407.91;;;11.56;100.00
11710;BME280;5911;51.036;6.972;2022-12-29T03:58:21;99395.03;;;11.53;100.00
11710;BME280;5911;51.036;6.972;2022-12-29T04:00:59;99405.25;;;11.56;100.00
11710;BME280;5911;51.036;6.972;2022-12-29T04:03:29;99407.25;;;11.62;100.00
11710;BME280;5911;51.036;6.972;2022-12-29T04:05:58;99407.59;;;11.67;100.00
11710;BME280;5911;51.036;6.972;2022-12-29T04:08:29;99409.25;;;11.68;100.00
11710;BME280;5911;51.036;6.972;2022-12-29T04:10:57;99393.91;;;11.72;100.00
11710;BME280;5911;51.036;6.972;2022-12-29T04:13:26;99400.19;;;11.71;100.00
11710;BME280;5911;51.036;6.972;2022-12-29T04:15:54;99391.09;;;11.73;100.00
11710;BME280;5911;51.036;6.972;2022-12-29T04:18:22;99400.03;;;11.72;100.00
11710;BME280;5911;51.036;6.972;2022-12-29T04:20:51;99386.47;;;11.67;100.00
11710;BME280;5911;51.036;6.972;2022-12-29T04:23:34;99385.78;;;11.65;100.00
11710;BME280;5911;51.036;6.972;2022-12-29T04:26:06;99382.31;;;11.64;100.00
11710;BME280;5911;51.036;6.972;2022-12-29T04:28:55;99383.66;;;11.60;100.00
11710;BME280;5911;51.036;6.972;2022-12-29T04:31:39;99393.41;;;11.60;100.00
11710;BME280;5911;51.036;6.972;2022-12-29T04:34:07;99388.44;;;11.57;100.00
11710;BME280;5911;51.036;6.972;2022-12-29T04:36:35;99387.56;;;11.48;100.00
11710;BME280;5911;51.036;6.972;2022-12-29T04:39:05;99391.06;;;11.57;100.00
11710;BME280;5911;51.036;6.972;2022-12-29T04:41:34;99403.28;;;11.66;100.00
11710;BME280;5911;51.036;6.972;2022-12-29T04:44:04;99404.94;;;11.67;100.00
11710;BME280;5911;51.036;6.972;2022-12-29T04:46:32;99406.25;;;11.63;100.00
11710;BME280;5911;51.036;6.972;2022-12-29T04:49:08;99415.88;;;11.72;100.00
11710;BME280;5911;51.036;6.972;2022-12-29T04:51:53;99423.28;;;11.69;100.00
11710;BME280;5911;51.036;6.972;2022-12-29T04:54:23;99414.88;;;11.73;100.00
11710;BME280;5911;51.036;6.972;2022-12-29T04:57:03;99415.88;;;11.72;100.00
11710;BME280;5911;51.036;6.972;2022-12-29T04:59:31;99404.63;;;11.70;100.00
11710;BME280;5911;51.036;6.972;2022-12-29T05:01:59;99402.50;;;11.74;100.00
11710;BME280;5911;51.036;6.972;2022-12-29T05:04:29;99409.59;;;11.73;100.00
11710;BME280;5911;51.036;6.972;2022-12-29T05:06:57;99420.16;;;11.73;100.00
11710;BME280;5911;51.036;6.972;2022-12-29T05:09:26;99413.91;;;11.74;100.00
11710;BME280;5911;51.036;6.972;2022-12-29T05:11:54;99412.09;;;11.75;100.00
11710;BME280;5911;51.036;6.972;2022-12-29T05:14:22;99410.94;;;11.77;100.00
11710;BME280;5911;51.036;6.972;2022-12-29T05:16:50;99419.19;;;11.74;100.00
11710;BME280;5911;51.036;6.972;2022-12-29T05:19:18;99424.47;;;11.74;100.00
11710;BME280;5911;51.036;6.972;2022-12-29T05:21:46;99433.88;;;11.77;100.00
11710;BME280;5911;51.036;6.972;2022-12-29T05:24:14;99428.91;;;11.74;100.00
11710;BME280;5911;51.036;6.972;2022-12-29T05:26:45;99440.31;;;11.74;100.00
11710;BME280;5911;51.036;6.972;2022-12-29T05:29:51;99442.31;;;11.80;100.00
11710;BME280;5911;51.036;6.972;2022-12-29T05:32:19;99450.09;;;11.82;100.00
11710;BME280;5911;51.036;6.972;2022-12-29T05:34:47;99428.47;;;11.86;100.00
11710;BME280;5911;51.036;6.972;2022-12-29T05:37:17;99435.41;;;11.87;100.00
11710;BME280;5911;51.036;6.972;2022-12-29T05:39:45;99453.09;;;11.87;100.00
11710;BME280;5911;51.036;6.972;2022-12-29T05:42:15;99448.28;;;11.82;100.00
11710;BME280;5911;51.036;6.972;2022-12-29T05:44:51;99459.66;;;11.83;100.00
11710;BME280;5911;51.036;6.972;2022-12-29T05:47:34;99456.56;;;11.87;100.00
11710;BME280;5911;51.036;6.972;2022-12-29T05:50:20;99464.16;;;11.90;100.00
11710;BME280;5911;51.036;6.972;2022-12-29T05:53:06;99450.59;;;11.93;100.00
11710;BME280;5911;51.036;6.972;2022-12-29T05:55:36;99458.56;;;12.02;100.00
11710;BME280;5911;51.036;6.972;2022-12-29T05:58:12;99474.53;;;11.92;100.00
11710;BME280;5911;51.036;6.972;2022-12-29T06:00:40;99469.78;;;11.95;100.00
11710;BME280;5911;51.036;6.972;2022-12-29T06:03:09;99469.78;;;11.95;100.00
11710;BME280;5911;51.036;6.972;2022-12-29T06:05:37;99469.78;;;11.95;100.00
11710;BME280;5911;51.036;6.972;2022-12-29T06:08:05;99444.69;;;11.91;100.00
11710;BME280;5911;51.036;6.972;2022-12-29T06:10:33;99464.16;;;11.90;100.00
11710;BME280;5911;51.036;6.972;2022-12-29T06:13:04;99457.22;;;11.89;100.00
11710;BME280;5911;51.036;6.972;2022-12-29T06:15:36;99467.13;;;11.87;100.00
11710;BME280;5911;51.036;6.972;2022-12-29T06:18:06;99465.63;;;11.93;100.00
11710;BME280;5911;51.036;6.972;2022-12-29T06:20:38;99458.88;;;11.90;100.00
11710;BME280;5911;51.036;6.972;2022-12-29T06:23:07;99459.88;;;11.97;100.00
11710;BME280;5911;51.036;6.972;2022-12-29T06:25:34;99460.22;;;12.03;100.00
11710;BME280;5911;51.036;6.972;2022-12-29T06:28:03;99459.38;;;12.02;100.00
11710;BME280;5911;51.036;6.972;2022-12-29T06:30:31;99466.31;;;12.03;100.00
11710;BME280;5911;51.036;6.972;2022-12-29T06:33:02;99473.94;;;12.06;100.00
11710;BME280;5911;51.036;6.972;2022-12-29T06:35:31;99487.97;;;12.07;100.00
11710;BME280;5911;51.036;6.972;2022-12-29T06:37:59;99469.44;;;11.98;100.00
11710;BME280;5911;51.036;6.972;2022-12-29T06:40:26;99483.34;;;12.01;100.00
11710;BME280;5911;51.036;6.972;2022-12-29T06:43:14;99490.78;;;12.05;100.00
11710;BME280;5911;51.036;6.972;2022-12-29T06:46:06;99486.81;;;12.01;100.00
11710;BME280;5911;51.036;6.972;2022-12-29T06:48:35;99489.25;;;11.94;100.00
11710;BME280;5911;51.036;6.972;2022-12-29T06:51:03;99485.94;;;11.92;100.00
11710;BME280;5911;51.036;6.972;2022-12-29T06:53:31;99496.84;;;11.89;100.00
11710;BME280;5911;51.036;6.972;2022-12-29T06:55:59;99500.16;;;11.91;100.00
11710;BME280;5911;51.036;6.972;2022-12-29T06:58:27;99489.91;;;11.88;100.00
11710;BME280;5911;51.036;6.972;2022-12-29T07:00:54;99490.41;;;11.92;100.00
11710;BME280;5911;51.036;6.972;2022-12-29T07:03:22;99491.56;;;11.89;100.00
11710;BME280;5911;51.036;6.972;2022-12-29T07:05:51;99493.38;;;11.89;100.00
11710;BME280;5911;51.036;6.972;2022-12-29T07:08:20;99502.16;;;11.89;100.00
11710;BME280;5911;51.036;6.972;2022-12-29T07:10:48;99493.53;;;11.87;100.00
11710;BME280;5911;51.036;6.972;2022-12-29T07:13:16;99504.28;;;11.94;100.00
11710;BME280;5911;51.036;6.972;2022-12-29T07:15:43;99496.03;;;11.89;100.00
11710;BME280;5911;51.036;6.972;2022-12-29T07:18:11;99526.59;;;11.91;100.00
11710;BME280;5911;51.036;6.972;2022-12-29T07:20:39;99516.03;;;11.91;100.00
11710;BME280;5911;51.036;6.972;2022-12-29T07:23:08;99513.53;;;11.90;100.00
11710;BME280;5911;51.036;6.972;2022-12-29T07:25:36;99517.31;;;11.87;100.00
11710;BME280;5911;51.036;6.972;2022-12-29T07:28:04;99531.88;;;11.91;100.00
11710;BME280;5911;51.036;6.972;2022-12-29T07:30:31;99532.19;;;11.88;100.00
11710;BME280;5911;51.036;6.972;2022-12-29T07:32:59;99535.00;;;11.87;100.00
11710;BME280;5911;51.036;6.972;2022-12-29T07:35:27;99543.91;;;11.86;100.00
11710;BME280;5911;51.036;6.972;2022-12-29T07:37:54;99540.13;;;11.88;100.00
11710;BME280;5911;51.036;6.972;2022-12-29T07:40:23;99536.97;;;11.85;100.00
11710;BME280;5911;51.036;6.972;2022-12-29T07:42:51;99551.47;;;11.81;100.00
11710;BME280;5911;51.036;6.972;2022-12-29T07:45:28;99565.19;;;11.84;100.00
11710;BME280;5911;51.036;6.972;2022-12-29T07:48:07;99562.25;;;11.87;100.00
11710;BME280;5911;51.036;6.972;2022-12-29T07:50:36;99566.72;;;11.87;100.00
11710;BME280;5911;51.036;6.972;2022-12-29T07:53:04;99567.63;;;11.78;100.00
11710;BME280;5911;51.036;6.972;2022-12-29T07:55:33;99567.19;;;11.82;100.00
11710;BME280;5911;51.036;6.972;2022-12-29T07:58:01;99577.59;;;11.84;100.00
11710;BME280;5911;51.036;6.972;2022-12-29T08:00:29;99585.34;;;11.85;100.00
11710;BME280;5911;51.036;6.972;2022-12-29T08:02:58;99538.97;;;11.57;100.00
11710;BME280;5911;51.036;6.972;2022-12-29T08:05:25;99596.75;;;11.86;100.00
11710;BME280;5911;51.036;6.972;2022-12-29T08:07:53;99593.97;;;11.87;100.00
11710;BME280;5911;51.036;6.972;2022-12-29T08:10:22;99581.72;;;11.86;100.00
11710;BME280;5911;51.036;6.972;2022-12-29T08:12:54;99581.38;;;11.81;100.00
11710;BME280;5911;51.036;6.972;2022-12-29T08:15:24;99582.50;;;11.79;100.00
11710;BME280;5911;51.036;6.972;2022-12-29T08:17:58;99594.88;;;11.78;100.00
11710;BME280;5911;51.036;6.972;2022-12-29T08:20:26;99599.53;;;11.76;100.00
11710;BME280;5911;51.036;6.972;2022-12-29T08:22:54;99593.22;;;11.77;100.00
11710;BME280;5911;51.036;6.972;2022-12-29T08:25:21;99587.06;;;11.69;100.00
11710;BME280;5911;51.036;6.972;2022-12-29T08:27:50;99594.00;;;11.70;100.00
11710;BME280;5911;51.036;6.972;2022-12-29T08:30:19;99590.00;;;11.66;100.00
11710;BME280;5911;51.036;6.972;2022-12-29T08:32:47;99593.78;;;11.63;100.00
11710;BME280;5911;51.036;6.972;2022-12-29T08:35:15;99594.78;;;11.62;100.00
11710;BME280;5911;51.036;6.972;2022-12-29T08:37:43;99594.78;;;11.62;100.00
11710;BME280;5911;51.036;6.972;2022-12-29T08:40:11;99595.13;;;11.67;100.00
11710;BME280;5911;51.036;6.972;2022-12-29T08:42:40;99605.25;;;11.72;100.00
11710;BME280;5911;51.036;6.972;2022-12-29T08:45:08;99605.91;;;11.74;100.00
11710;BME280;5911;51.036;6.972;2022-12-29T08:47:37;99618.59;;;11.70;100.00
11710;BME280;5911;51.036;6.972;2022-12-29T08:50:06;99609.19;;;11.68;100.00
11710;BME280;5911;51.036;6.972;2022-12-29T08:52:34;99621.94;;;11.72;100.00
11710;BME280;5911;51.036;6.972;2022-12-29T08:55:02;99610.28;;;11.57;100.00
11710;BME280;5911;51.036;6.972;2022-12-29T08:57:33;99594.59;;;11.55;100.00
11710;BME280;5911;51.036;6.972;2022-12-29T09:00:06;99632.19;;;11.75;100.00
11710;BME280;5911;51.036;6.972;2022-12-29T09:02:35;99631.88;;;11.78;100.00
11710;BME280;5911;51.036;6.972;2022-12-29T09:05:08;99636.34;;;11.78;100.00
11710;BME280;5911;51.036;6.972;2022-12-29T09:07:36;99637.16;;;11.78;100.00
11710;BME280;5911;51.036;6.972;2022-12-29T09:10:04;99628.94;;;11.81;100.00
11710;BME280;5911;51.036;6.972;2022-12-29T09:12:32;99648.78;;;11.85;100.00
11710;BME280;5911;51.036;6.972;2022-12-29T09:15:02;99608.66;;;11.64;100.00
11710;BME280;5911;51.036;6.972;2022-12-29T09:17:31;99646.13;;;11.85;100.00
11710;BME280;5911;51.036;6.972;2022-12-29T09:20:15;99646.81;;;11.87;100.00
11710;BME280;5911;51.036;6.972;2022-12-29T09:22:44;99673.84;;;11.81;100.00
11710;BME280;5911;51.036;6.972;2022-12-29T09:25:13;99671.06;;;11.83;100.00
11710;BME280;5911;51.036;6.972;2022-12-29T09:27:41;99679.88;;;11.91;100.00
11710;BME280;5911;51.036;6.972;2022-12-29T09:30:11;99672.09;;;11.90;100.00
11710;BME280;5911;51.036;6.972;2022-12-29T09:32:41;99695.78;;;12.08;100.00
11710;BME280;5911;51.036;6.972;2022-12-29T09:35:13;99698.63;;;12.06;100.00
11710;BME280;5911;51.036;6.972;2022-12-29T09:37:42;99693.34;;;12.06;100.00
11710;BME280;5911;51.036;6.972;2022-12-29T09:40:23;99711.84;;;12.06;100.00
11710;BME280;5911;51.036;6.972;2022-12-29T09:43:14;99704.72;;;12.07;100.00
11710;BME280;5911;51.036;6.972;2022-12-29T09:45:48;99713.31;;;12.09;100.00
11710;BME280;5911;51.036;6.972;2022-12-29T09:48:25;99672.25;;;11.88;100.00
11710;BME280;5911;51.036;6.972;2022-12-29T09:50:59;99681.50;;;11.92;100.00
11710;BME280;5911;51.036;6.972;2022-12-29T09:53:35;99713.66;;;12.06;98.88
11710;BME280;5911;51.036;6.972;2022-12-29T09:56:05;99734.47;;;12.09;98.78
11710;BME280;5911;51.036;6.972;2022-12-29T09:58:41;99704.41;;;12.10;99.17
11710;BME280;5911;51.036;6.972;2022-12-29T10:01:21;99741.94;;;12.13;98.12
11710;BME280;5911;51.036;6.972;2022-12-29T10:03:57;99722.22;;;12.08;97.91
11710;BME280;5911;51.036;6.972;2022-12-29T10:06:33;99711.63;;;12.00;97.06
11710;BME280;5911;51.036;6.972;2022-12-29T10:09:31;99710.66;;;12.09;97.49
11710;BME280;5911;51.036;6.972;2022-12-29T10:12:09;99705.91;;;12.12;98.01
11710;BME280;5911;51.036;6.972;2022-12-29T10:14:57;99692.16;;;12.09;95.85
11710;BME280;5911;51.036;6.972;2022-12-29T10:17:34;99705.81;;;12.22;95.50
11710;BME280;5911;51.036;6.972;2022-12-29T10:20:20;99670.00;;;12.02;94.60
11710;BME280;5911;51.036;6.972;2022-12-29T10:23:03;99705.81;;;12.30;94.07
11710;BME280;5911;51.036;6.972;2022-12-29T10:25:37;99706.84;;;12.37;95.09
11710;BME280;5911;51.036;6.972;2022-12-29T10:28:21;99702.56;;;12.44;92.72
11710;BME280;5911;51.036;6.972;2022-12-29T10:30:50;99703.56;;;12.43;92.83
11710;BME280;5911;51.036;6.972;2022-12-29T10:33:21;99708.00;;;12.35;90.76
11710;BME280;5911;51.036;6.972;2022-12-29T10:35:51;99710.66;;;12.43;91.03
11710;BME280;5911;51.036;6.972;2022-12-29T10:38:25;99701.06;;;12.33;90.57
11710;BME280;5911;51.036;6.972;2022-12-29T10:40:58;99710.16;;;12.39;91.01
11710;BME280;5911;51.036;6.972;2022-12-29T10:43:29;99705.69;;;12.40;88.75
11710;BME280;5911;51.036;6.972;2022-12-29T10:46:00;99711.19;;;12.46;89.86
11710;BME280;5911;51.036;6.972;2022-12-29T10:48:32;99726.44;;;12.52;91.17
11710;BME280;5911;51.036;6.972;2022-12-29T10:51:02;99737.63;;;12.46;90.92
11710;BME280;5911;51.036;6.972;2022-12-29T10:53:38;99730.69;;;12.45;90.86
11710;BME280;5911;51.036;6.972;2022-12-29T10:56:15;99735.66;;;12.48;90.60
11710;BME280;5911;51.036;6.972;2022-12-29T10:58:49;99725.41;;;12.45;90.25
11710;BME280;5911;51.036;6.972;2022-12-29T11:01:17;99730.38;;;12.48;89.08
11710;BME280;5911;51.036;6.972;2022-12-29T11:03:58;99721.28;;;12.51;88.43
11710;BME280;5911;51.036;6.972;2022-12-29T11:06:30;99738.63;;;12.45;89.11
11710;BME280;5911;51.036;6.972;2022-12-29T11:09:04;99736.00;;;12.53;90.25
11710;BME280;5911;51.036;6.972;2022-12-29T11:11:36;99735.34;;;12.51;90.62
11710;BME280;5911;51.036;6.972;2022-12-29T11:14:12;99737.50;;;12.56;90.20
11710;BME280;5911;51.036;6.972;2022-12-29T11:16:41;99745.09;;;12.51;90.20
11710;BME280;5911;51.036;6.972;2022-12-29T11:19:21;99737.63;;;12.46;91.77
11710;BME280;5911;51.036;6.972;2022-12-29T11:21:49;99759.16;;;12.51;92.57
11710;BME280;5911;51.036;6.972;2022-12-29T11:24:23;99752.81;;;12.44;91.84
11710;BME280;5911;51.036;6.972;2022-12-29T11:26:53;99740.50;;;12.61;90.32
11710;BME280;5911;51.036;6.972;2022-12-29T11:29:26;99748.44;;;12.61;90.71
11710;BME280;5911;51.036;6.972;2022-12-29T11:31:55;99745.25;;;12.49;90.05
11710;BME280;5911;51.036;6.972;2022-12-29T11:34:27;99756.00;;;12.48;90.13
11710;BME280;5911;51.036;6.972;2022-12-29T11:37:00;99783.94;;;12.50;87.91
11710;BME280;5911;51.036;6.972;2022-12-29T11:39:35;99767.09;;;12.51;86.95
11710;BME280;5911;51.036;6.972;2022-12-29T11:42:06;99773.00;;;12.45;88.69
11710;BME280;5911;51.036;6.972;2022-12-29T11:44:43;99764.69;;;12.40;90.73
11710;BME280;5911;51.036;6.972;2022-12-29T11:47:20;99789.31;;;12.32;90.68
11710;BME280;5911;51.036;6.972;2022-12-29T11:49:51;99750.38;;;12.17;90.49
11710;BME280;5911;51.036;6.972;2022-12-29T11:52:22;99776.84;;;12.25;90.47
11710;BME280;5911;51.036;6.972;2022-12-29T11:54:53;99767.94;;;12.26;91.44
11710;BME280;5911;51.036;6.972;2022-12-29T11:57:23;99778.50;;;12.26;90.87
11710;BME280;5911;51.036;6.972;2022-12-29T11:59:53;99794.53;;;12.24;90.46
11710;BME280;5911;51.036;6.972;2022-12-29T12:02:40;99792.00;;;12.15;91.25
11710;BME280;5911;51.036;6.972;2022-12-29T12:05:14;99786.00;;;12.05;93.91
11710;BME280;5911;51.036;6.972;2022-12-29T12:07:46;99765.16;;;12.02;92.25
11710;BME280;5911;51.036;6.972;2022-12-29T12:10:23;99775.78;;;12.10;91.62
11710;BME280;5911;51.036;6.972;2022-12-29T12:12:56;99795.94;;;12.11;91.95
11710;BME280;5911;51.036;6.972;2022-12-29T12:15:29;99779.09;;;12.12;91.94
11710;BME280;5911;51.036;6.972;2022-12-29T12:18:02;99766.97;;;12.01;92.12
11710;BME280;5911;51.036;6.972;2022-12-29T12:20:39;99794.81;;;12.13;92.60
11710;BME280;5911;51.036;6.972;2022-12-29T12:23:22;99772.41;;;12.00;92.80
11710;BME280;5911;51.036;6.972;2022-12-29T12:25:59;99791.88;;;12.24;93.14
11710;BME280;5911;51.036;6.972;2022-12-29T12:28:36;99793.84;;;12.22;92.67
11710;BME280;5911;51.036;6.972;2022-12-29T12:31:06;99815.66;;;12.16;93.23
11710;BME280;5911;51.036;6.972;2022-12-29T12:33:43;99810.22;;;12.18;92.84
11710;BME280;5911;51.036;6.972;2022-12-29T12:36:46;99807.03;;;12.14;93.28
11710;BME280;5911;51.036;6.972;2022-12-29T12:39:25;99808.69;;;12.15;94.89
11710;BME280;5911;51.036;6.972;2022-12-29T12:42:04;99809.53;;;12.16;95.47
11710;BME280;5911;51.036;6.972;2022-12-29T12:44:44;99823.88;;;12.13;94.31
11710;BME280;5911;51.036;6.972;2022-12-29T12:47:34;99823.13;;;12.21;93.85
11710;BME280;5911;51.036;6.972;2022-12-29T12:50:15;99835.97;;;12.16;94.49
11710;BME280;5911;51.036;6.972;2022-12-29T12:53:03;99815.00;;;12.22;94.64
11710;BME280;5911;51.036;6.972;2022-12-29T12:55:56;99800.69;;;12.07;94.73
11710;BME280;5911;51.036;6.972;2022-12-29T12:58:35;99811.88;;;12.19;93.76
11710;BME280;5911;51.036;6.972;2022-12-29T13:01:14;99833.69;;;12.21;93.31
11710;BME280;5911;51.036;6.972;2022-12-29T13:03:53;99805.91;;;12.17;93.18
11710;BME280;5911;51.036;6.972;2022-12-29T13:06:35;99794.28;;;12.10;89.21
11710;BME280;5911;51.036;6.972;2022-12-29T13:09:34;99825.78;;;12.21;87.88
11710;BME280;5911;51.036;6.972;2022-12-29T13:12:17;99808.84;;;12.14;90.26
11710;BME280;5911;51.036;6.972;2022-12-29T13:14:56;99815.94;;;12.13;90.74
11710;BME280;5911;51.036;6.972;2022-12-29T13:17:31;99834.16;;;12.16;90.42
11710;BME280;5911;51.036;6.972;2022-12-29T13:20:07;99844.09;;;12.22;89.15
11710;BME280;5911;51.036;6.972;2022-12-29T13:22:46;99812.94;;;12.08;89.03
11710;BME280;5911;51.036;6.972;2022-12-29T13:25:27;99815.13;;;12.13;90.79
11710;BME280;5911;51.036;6.972;2022-12-29T13:28:01;99827.34;;;12.14;92.17
11710;BME280;5911;51.036;6.972;2022-12-29T13:30:36;99812.34;;;11.96;92.80
11710;BME280;5911;51.036;6.972;2022-12-29T13:33:16;99832.41;;;12.07;92.63
11710;BME280;5911;51.036;6.972;2022-12-29T13:35:55;99820.03;;;12.08;92.73
11710;BME280;5911;51.036;6.972;2022-12-29T13:38:26;99846.13;;;12.03;94.27
11710;BME280;5911;51.036;6.972;2022-12-29T13:41:01;99856.38;;;12.06;94.10
11710;BME280;5911;51.036;6.972;2022-12-29T13:43:32;99851.09;;;12.06;93.13
11710;BME280;5911;51.036;6.972;2022-12-29T13:46:07;99858.19;;;12.05;93.21
11710;BME280;5911;51.036;6.972;2022-12-29T13:48:41;99857.53;;;12.03;93.23
11710;BME280;5911;51.036;6.972;2022-12-29T13:51:11;99865.59;;;12.02;93.18
11710;BME280;5911;51.036;6.972;2022-12-29T13:53:54;99861.59;;;11.97;93.98
11710;BME280;5911;51.036;6.972;2022-12-29T13:56:26;99860.47;;;12.00;94.01
11710;BME280;5911;51.036;6.972;2022-12-29T13:59:02;99864.91;;;12.00;93.92